Time;durP1;ratioP1;P1;durP2;ratioP2;P2;SDS_P1;SDS_P2;PMS_P1;PMS_P2;Temp;Humidity;BMP_temperature;BMP_pressure;BME280_temperature;BME280_humidity;BME280_pressure;Samples;Min_cycle;Max_cycle;Signal;HPM_P1;HPM_P2
2022/09/28 00:01:53;;;;;;;11.23;8.10;;;9.60;99.90;;;;;;5038346;28;20082;-79
2022/09/28 00:04:19;;;;;;;12.93;8.60;;;9.50;99.90;;;;;;5056060;28;20473;-79
2022/09/28 00:06:46;;;;;;;12.73;8.97;;;9.50;99.90;;;;;;5054792;28;20025;-79
2022/09/28 00:09:15;;;;;;;13.40;8.50;;;9.50;99.90;;;;;;5038244;28;20041;-79
2022/09/28 00:11:42;;;;;;;14.17;9.27;;;9.40;99.90;;;;;;5038110;28;20040;-79
2022/09/28 00:14:09;;;;;;;12.07;7.80;;;9.40;99.90;;;;;;5038200;28;20477;-79
2022/09/28 00:16:39;;;;;;;15.47;9.53;;;9.40;99.90;;;;;;5037970;28;20078;-79
2022/09/28 00:19:07;;;;;;;12.50;8.23;;;9.30;99.90;;;;;;5054564;28;20384;-80
2022/09/28 00:21:35;;;;;;;12.90;9.00;;;9.30;99.90;;;;;;5054405;28;20117;-80
2022/09/28 00:24:12;;;;;;;11.50;8.67;;;9.30;99.90;;;;;;5055011;28;20024;-84
2022/09/28 00:26:45;;;;;;;17.07;9.07;;;9.30;99.90;;;;;;5039401;28;20056;-85
2022/09/28 00:29:27;;;;;;;13.38;8.93;;;9.30;99.90;;;;;;5054434;28;20033;-85
2022/09/28 00:31:58;;;;;;;14.53;9.33;;;9.20;99.90;;;;;;5054343;28;20102;-85
2022/09/28 00:34:25;;;;;;;14.47;9.57;;;9.20;99.90;;;;;;5055595;28;20017;-85
2022/09/28 00:36:51;;;;;;;14.40;9.63;;;9.20;99.90;;;;;;5055426;28;20024;-84
2022/09/28 00:39:17;;;;;;;14.97;10.37;;;9.10;99.90;;;;;;5036545;28;20359;-85
2022/09/28 00:41:44;;;;;;;13.30;8.93;;;9.20;99.90;;;;;;5021019;28;20146;-85
2022/09/28 00:44:25;;;;;;;13.80;10.33;;;9.10;99.90;;;;;;5037745;28;20021;-85
2022/09/28 00:46:56;;;;;;;14.97;9.17;;;9.10;99.90;;;;;;5053996;28;20523;-85
2022/09/28 00:49:35;;;;;;;14.20;9.63;;;9.10;99.90;;;;;;5054283;28;20090;-85
2022/09/28 00:52:04;;;;;;;14.97;9.53;;;9.10;99.90;;;;;;5054297;28;20017;-86
2022/09/28 00:54:30;;;;;;;13.70;9.80;;;9.10;99.90;;;;;;5053924;28;20021;-86
2022/09/28 00:56:57;;;;;;;19.00;10.10;;;9.10;99.90;;;;;;5053826;28;20029;-83
2022/09/28 00:59:23;;;;;;;15.07;9.97;;;9.10;99.90;;;;;;5055062;28;20021;-80
2022/09/28 01:01:49;;;;;;;14.83;10.13;;;9.10;99.90;;;;;;5037537;28;20025;-80
2022/09/28 01:04:16;;;;;;;15.63;9.97;;;9.10;99.90;;;;;;5037140;28;20031;-81
2022/09/28 01:06:44;;;;;;;17.43;10.27;;;9.10;99.90;;;;;;5053659;28;20036;-80
2022/09/28 01:09:11;;;;;;;16.40;9.83;;;9.10;99.90;;;;;;5054793;28;20021;-80
2022/09/28 01:11:38;;;;;;;17.50;11.03;;;9.10;99.90;;;;;;5053489;28;20028;-80
2022/09/28 01:14:08;;;;;;;15.53;10.47;;;9.10;99.90;;;;;;5053550;28;20120;-80
2022/09/28 01:17:05;;;;;;;13.83;9.73;;;9.10;99.90;;;;;;5036606;28;20029;-80
2022/09/28 01:20:13;;;;;;;15.97;10.00;;;9.10;99.90;;;;;;5053870;28;20024;-80
2022/09/28 01:23:00;;;;;;;13.80;9.40;;;9.10;99.90;;;;;;5036644;28;20533;-80
2022/09/28 01:25:45;;;;;;;14.53;9.63;;;9.10;99.90;;;;;;5053514;28;20025;-80
2022/09/28 01:28:14;;;;;;;15.53;10.30;;;9.10;99.90;;;;;;5054703;28;20025;-79
2022/09/28 01:30:45;;;;;;;13.87;9.53;;;9.00;99.90;;;;;;5036769;28;20354;-80
2022/09/28 01:33:18;;;;;;;13.27;10.07;;;9.00;99.90;;;;;;5053361;28;20021;-80
2022/09/28 01:35:51;;;;;;;16.47;10.37;;;8.90;99.90;;;;;;5036134;28;20029;-80
2022/09/28 01:38:32;;;;;;;18.55;11.50;;;8.90;99.90;;;;;;5036303;28;20025;-80
2022/09/28 01:40:59;;;;;;;16.83;11.60;;;8.80;99.90;;;;;;5036592;28;20028;-79
2022/09/28 01:43:27;;;;;;;16.87;11.93;;;8.80;99.90;;;;;;5054091;28;20028;-79
2022/09/28 01:45:59;;;;;;;18.23;12.93;;;8.80;99.90;;;;;;5036201;28;20025;-79
2022/09/28 01:48:48;;;;;;;17.60;11.87;;;8.70;99.90;;;;;;5036189;28;20020;-79
2022/09/28 01:51:28;;;;;;;17.67;12.47;;;8.70;99.90;;;;;;5052549;28;20094;-79
2022/09/28 01:53:57;;;;;;;18.77;12.53;;;8.60;99.90;;;;;;5035965;28;20112;-80
2022/09/28 01:56:35;;;;;;;18.07;11.20;;;8.60;99.90;;;;;;5035602;28;20045;-80
2022/09/28 01:59:14;;;;;;;22.37;11.60;;;8.60;99.90;;;;;;5036006;28;20052;-80
2022/09/28 02:01:46;;;;;;;20.50;11.57;;;8.60;99.90;;;;;;5036002;28;20032;-79
2022/09/28 02:04:46;;;;;;;18.97;12.43;;;8.70;99.90;;;;;;5035878;28;20524;-80
2022/09/28 02:07:34;;;;;;;16.60;11.37;;;8.60;99.90;;;;;;5035702;28;20163;-79
2022/09/28 02:10:05;;;;;;;21.03;12.90;;;8.50;99.90;;;;;;5036461;28;20371;-85
2022/09/28 02:12:45;;;;;;;15.93;11.77;;;8.60;99.90;;;;;;5053863;28;20032;-85
2022/09/28 02:15:16;;;;;;;18.20;12.87;;;8.60;99.90;;;;;;5035983;28;20028;-85
2022/09/28 02:17:42;;;;;;;19.80;12.23;;;8.60;99.90;;;;;;5035839;28;20025;-85
2022/09/28 02:20:08;;;;;;;18.87;11.93;;;8.60;99.90;;;;;;5019370;28;20048;-85
2022/09/28 02:22:42;;;;;;;21.73;11.57;;;8.60;99.90;;;;;;5019756;28;20146;-85
2022/09/28 02:25:10;;;;;;;18.30;12.40;;;8.60;99.90;;;;;;5035895;28;20029;-85
2022/09/28 02:27:40;;;;;;;16.60;11.67;;;8.60;99.90;;;;;;5035701;28;20477;-85
2022/09/28 02:30:07;;;;;;;18.93;11.87;;;8.60;99.90;;;;;;5035753;28;20025;-85
2022/09/28 02:32:39;;;;;;;19.50;12.27;;;8.70;99.90;;;;;;5035813;28;20374;-86
2022/09/28 02:35:11;;;;;;;18.30;12.00;;;8.70;99.90;;;;;;5035665;28;20017;-85
2022/09/28 02:37:38;;;;;;;16.13;11.77;;;8.70;99.90;;;;;;5019100;28;20485;-85
2022/09/28 02:40:12;;;;;;;21.03;10.93;;;8.70;99.90;;;;;;5019434;28;20112;-85
2022/09/28 02:42:45;;;;;;;18.40;11.10;;;8.70;99.90;;;;;;5035447;28;20025;-85
2022/09/28 02:45:54;;;;;;;15.23;10.23;;;8.80;99.90;;;;;;5051960;28;20120;-84
2022/09/28 02:48:39;;;;;;;16.97;10.33;;;8.80;99.90;;;;;;5028516;28;20177;-85
2022/09/28 02:51:20;;;;;;;17.80;10.93;;;8.80;99.90;;;;;;5052239;28;20029;-85
2022/09/28 02:53:48;;;;;;;18.03;11.40;;;8.80;99.90;;;;;;5035948;28;20041;-85
2022/09/28 02:56:48;;;;;;;14.90;11.00;;;8.80;99.90;;;;;;5051988;28;20045;-85
2022/09/28 02:59:38;;;;;;;14.30;9.93;;;8.80;99.90;;;;;;5051872;28;20029;-85
2022/09/28 03:02:30;;;;;;;14.97;10.97;;;8.80;99.90;;;;;;5048662;28;20576;-85
2022/09/28 03:05:02;;;;;;;18.17;10.53;;;8.80;99.90;;;;;;4989909;28;20026;-85
2022/09/28 03:07:54;;;;;;;13.60;9.67;;;8.80;99.90;;;;;;5037020;28;20470;-85
2022/09/28 03:10:27;;;;;;;14.77;9.90;;;8.80;99.90;;;;;;5020169;28;20079;-85
2022/09/28 03:12:53;;;;;;;15.70;10.53;;;8.90;99.90;;;;;;5019813;28;20464;-85
2022/09/28 03:15:31;;;;;;;15.83;10.87;;;8.90;99.90;;;;;;5036500;28;20072;-85
2022/09/28 03:17:57;;;;;;;13.70;10.27;;;8.90;99.90;;;;;;5036729;28;20031;-85
2022/09/28 03:20:24;;;;;;;15.40;9.23;;;8.90;99.90;;;;;;5037078;28;20021;-85
2022/09/28 03:22:50;;;;;;;15.60;10.23;;;8.90;99.90;;;;;;5019409;28;20022;-84
2022/09/28 03:25:16;;;;;;;16.07;10.17;;;9.00;99.90;;;;;;5019322;28;20367;-85
2022/09/28 03:27:42;;;;;;;14.87;10.47;;;8.90;99.90;;;;;;5035726;28;20421;-85
2022/09/28 03:30:09;;;;;;;15.03;10.60;;;8.90;99.90;;;;;;5019277;28;20025;-85
2022/09/28 03:32:34;;;;;;;16.00;10.23;;;9.00;99.90;;;;;;5019148;28;20033;-85
2022/09/28 03:35:00;;;;;;;18.20;10.17;;;8.90;99.90;;;;;;5019064;28;20392;-85
2022/09/28 03:37:26;;;;;;;14.67;9.70;;;9.00;99.90;;;;;;5019521;28;20025;-85
2022/09/28 03:39:52;;;;;;;16.07;10.40;;;9.00;99.90;;;;;;5018977;28;20425;-85
2022/09/28 03:42:18;;;;;;;12.93;9.50;;;9.00;99.90;;;;;;5035392;28;20029;-85
2022/09/28 03:44:43;;;;;;;16.77;9.97;;;9.00;99.90;;;;;;5019035;28;20044;-85
2022/09/28 03:47:09;;;;;;;14.77;10.07;;;9.00;99.90;;;;;;5018741;28;20035;-85
2022/09/28 03:49:35;;;;;;;15.93;8.87;;;9.00;99.90;;;;;;5035702;28;20071;-85
2022/09/28 03:52:02;;;;;;;15.20;8.57;;;9.00;99.90;;;;;;5018590;28;20486;-85
2022/09/28 03:54:27;;;;;;;13.53;8.20;;;9.10;99.90;;;;;;5036516;28;20033;-85
2022/09/28 03:56:53;;;;;;;13.70;8.73;;;9.10;99.90;;;;;;5002258;28;20565;-84
2022/09/28 03:59:19;;;;;;;13.17;9.13;;;9.10;99.90;;;;;;5002399;28;20026;-85
2022/09/28 04:01:47;;;;;;;13.37;8.47;;;9.20;99.90;;;;;;5002326;28;20508;-85
2022/09/28 04:04:13;;;;;;;11.00;7.67;;;9.10;99.90;;;;;;5036384;28;20036;-85
2022/09/28 04:06:39;;;;;;;8.57;5.90;;;9.10;99.90;;;;;;5018647;28;20123;-84
2022/09/28 04:09:05;;;;;;;12.13;7.40;;;9.10;99.90;;;;;;5036396;28;20034;-84
2022/09/28 04:11:31;;;;;;;11.17;6.87;;;9.10;99.90;;;;;;5034772;28;20029;-83
2022/09/28 04:13:56;;;;;;;10.50;6.77;;;9.10;99.90;;;;;;5034274;28;20037;-83
2022/09/28 04:16:22;;;;;;;11.60;7.03;;;9.10;99.90;;;;;;5020303;28;20079;-81
2022/09/28 04:18:48;;;;;;;10.10;5.93;;;9.10;99.90;;;;;;5038005;28;20029;-82
2022/09/28 04:21:16;;;;;;;13.17;6.90;;;9.10;99.90;;;;;;5037762;28;20025;-82
2022/09/28 04:23:42;;;;;;;10.20;6.57;;;9.10;99.90;;;;;;5054396;28;20079;-82
2022/09/28 04:26:15;;;;;;;10.77;6.93;;;9.10;99.90;;;;;;5037882;28;20037;-82
2022/09/28 04:31:27;;;;;;;9.30;6.00;;;9.10;99.90;;;;;;5041044;28;20063;-82
2022/09/28 04:33:53;;;;;;;10.87;6.53;;;9.00;99.90;;;;;;5055347;28;20052;-82
2022/09/28 04:36:19;;;;;;;11.53;6.00;;;9.00;99.90;;;;;;5037504;28;20535;-82
2022/09/28 04:38:44;;;;;;;13.30;6.37;;;9.00;99.90;;;;;;5054115;28;20017;-82
2022/09/28 04:41:11;;;;;;;9.53;6.27;;;8.90;99.90;;;;;;5037810;28;20017;-82
2022/09/28 04:43:36;;;;;;;9.53;6.10;;;9.10;99.90;;;;;;5037475;28;20029;-81
2022/09/28 04:46:04;;;;;;;8.97;6.27;;;8.90;99.90;;;;;;5037523;28;20033;-82
2022/09/28 04:48:30;;;;;;;10.03;5.87;;;8.90;99.90;;;;;;5053979;28;20029;-82
2022/09/28 04:50:58;;;;;;;8.80;5.50;;;8.80;99.90;;;;;;5037196;28;20132;-83
2022/09/28 04:53:24;;;;;;;12.63;6.43;;;8.80;99.90;;;;;;5037564;28;20025;-83
2022/09/28 04:56:11;;;;;;;12.37;6.93;;;8.80;99.90;;;;;;5053739;28;20128;-83
2022/09/28 04:58:38;;;;;;;9.87;6.17;;;8.70;99.90;;;;;;5036989;28;20020;-83
2022/09/28 05:01:06;;;;;;;11.37;6.30;;;8.70;99.90;;;;;;5053785;28;20028;-83
2022/09/28 05:03:32;;;;;;;10.17;5.10;;;8.60;99.90;;;;;;5053618;28;20132;-83
2022/09/28 05:05:58;;;;;;;13.70;6.90;;;8.60;99.90;;;;;;5054806;28;20036;-83
2022/09/28 05:08:25;;;;;;;13.60;6.70;;;8.60;99.90;;;;;;5036907;28;20052;-83
2022/09/28 05:10:59;;;;;;;11.67;6.40;;;8.60;99.90;;;;;;5036936;28;20032;-84
2022/09/28 05:13:25;;;;;;;;;;;8.40;99.90;;;;;;5053993;28;20032;-83
2022/09/28 05:15:53;;;;;;;10.93;6.37;;;8.50;99.90;;;;;;5053248;28;19916;-84
2022/09/28 05:18:19;;;;;;;10.40;6.20;;;8.40;99.90;;;;;;5036960;28;20021;-84
2022/09/28 05:20:45;;;;;;;9.20;5.97;;;8.40;99.90;;;;;;5036729;28;20139;-83
2022/09/28 05:23:11;;;;;;;8.83;5.93;;;8.40;99.90;;;;;;5053547;28;20125;-84
2022/09/28 05:25:38;;;;;;;12.00;6.67;;;8.30;99.90;;;;;;5032126;28;20080;-83
2022/09/28 05:28:05;;;;;;;10.13;5.97;;;8.30;99.90;;;;;;5033452;28;20028;-83
2022/09/28 05:30:31;;;;;;;9.27;6.47;;;8.20;99.90;;;;;;5036426;28;20017;-84
2022/09/28 05:32:57;;;;;;;11.57;6.83;;;8.30;99.90;;;;;;5001975;28;20071;-84
2022/09/28 05:35:23;;;;;;;12.33;6.50;;;8.30;99.90;;;;;;5000080;28;20101;-85
2022/09/28 05:37:48;;;;;;;10.87;6.23;;;8.20;99.90;;;;;;4999996;28;20022;-84
2022/09/28 05:40:15;;;;;;;10.13;6.03;;;8.30;99.90;;;;;;5034349;28;20029;-84
2022/09/28 05:42:41;;;;;;;11.77;7.40;;;8.20;99.90;;;;;;5000096;28;20022;-84
2022/09/28 05:45:07;;;;;;;12.60;6.13;;;8.20;99.90;;;;;;5016821;28;20079;-85
2022/09/28 05:47:38;;;;;;;9.93;6.00;;;8.20;99.90;;;;;;5016753;28;20029;-85
2022/09/28 05:50:05;;;;;;;10.23;6.70;;;8.20;99.90;;;;;;5020990;28;20422;-85
2022/09/28 05:52:31;;;;;;;11.97;6.07;;;8.10;99.90;;;;;;5016170;28;20033;-84
2022/09/28 05:54:57;;;;;;;8.80;5.77;;;8.10;99.90;;;;;;5033784;28;20382;-84
2022/09/28 05:57:22;;;;;;;10.30;5.70;;;8.10;99.90;;;;;;5019445;28;20032;-85
2022/09/28 05:59:48;;;;;;;9.57;5.80;;;8.20;99.90;;;;;;5031413;28;20032;-85
2022/09/28 06:02:13;;;;;;;9.33;5.67;;;8.10;99.90;;;;;;5020460;28;20025;-85
2022/09/28 06:04:39;;;;;;;9.70;5.67;;;8.10;99.90;;;;;;5036324;28;20017;-84
2022/09/28 06:07:05;;;;;;;10.23;5.60;;;8.00;99.90;;;;;;5036050;28;20020;-84
2022/09/28 06:09:31;;;;;;;9.90;5.23;;;8.00;99.90;;;;;;5019345;28;20025;-84
2022/09/28 06:11:58;;;;;;;9.27;5.13;;;8.00;99.90;;;;;;5019513;28;20033;-85
2022/09/28 06:14:24;;;;;;;9.90;5.60;;;8.00;99.90;;;;;;5035432;28;20025;-85
2022/09/28 06:16:50;;;;;;;9.30;5.60;;;8.00;99.90;;;;;;5019090;28;20024;-85
2022/09/28 06:19:16;;;;;;;8.10;4.87;;;7.90;99.90;;;;;;5052284;28;20056;-85
2022/09/28 06:21:42;;;;;;;11.13;4.87;;;7.90;99.90;;;;;;5035904;28;20017;-83
2022/09/28 06:24:08;;;;;;;8.13;5.00;;;7.90;99.90;;;;;;5035573;28;20021;-83
2022/09/28 06:26:34;;;;;;;12.67;5.03;;;7.90;99.90;;;;;;5019170;28;20056;-84
2022/09/28 06:28:59;;;;;;;12.20;4.70;;;7.90;99.90;;;;;;5035332;28;20460;-84
2022/09/28 06:31:26;;;;;;;8.20;4.67;;;8.00;99.90;;;;;;5035656;28;20381;-85
2022/09/28 06:33:52;;;;;;;7.60;4.50;;;8.00;99.90;;;;;;5035647;28;20718;-84
2022/09/28 06:36:19;;;;;;;10.40;4.70;;;7.90;99.90;;;;;;5034759;28;20362;-83
2022/09/28 06:38:45;;;;;;;8.97;4.97;;;8.00;99.90;;;;;;5035509;28;20036;-83
2022/09/28 06:41:11;;;;;;;12.17;4.23;;;8.00;99.90;;;;;;5035796;28;20071;-84
2022/09/28 06:43:40;;;;;;;6.40;3.87;;;8.00;99.90;;;;;;5018908;28;20477;-84
2022/09/28 06:46:09;;;;;;;7.57;4.13;;;8.00;99.90;;;;;;5019342;28;20025;-84
2022/09/28 06:48:35;;;;;;;7.67;3.90;;;8.10;99.90;;;;;;5018843;28;20029;-84
2022/09/28 06:51:01;;;;;;;9.97;4.07;;;8.10;99.90;;;;;;5035284;28;20412;-84
2022/09/28 06:53:27;;;;;;;6.33;3.30;;;8.00;99.90;;;;;;5035518;28;20021;-84
2022/09/28 06:55:54;;;;;;;6.43;3.73;;;8.10;99.90;;;;;;5052828;28;20083;-84
2022/09/28 06:58:22;;;;;;;5.83;3.97;;;8.10;99.90;;;;;;5035364;28;20024;-84
2022/09/28 07:00:50;;;;;;;11.13;3.50;;;8.20;99.90;;;;;;5035379;28;20025;-85
2022/09/28 07:03:21;;;;;;;8.47;4.13;;;8.30;99.90;;;;;;5036015;28;20048;-85
2022/09/28 07:05:50;;;;;;;12.20;3.60;;;8.30;99.90;;;;;;5019914;28;20027;-84
2022/09/28 07:08:17;;;;;;;6.17;3.27;;;8.40;99.90;;;;;;5035365;28;20104;-84
2022/09/28 07:10:45;;;;;;;5.03;2.97;;;8.40;99.90;;;;;;5035401;28;20021;-85
2022/09/28 07:13:12;;;;;;;5.67;3.47;;;8.50;99.90;;;;;;5035911;28;20104;-85
2022/09/28 07:15:39;;;;;;;5.80;3.37;;;8.50;99.90;;;;;;5019087;28;20389;-85
2022/09/28 07:18:05;;;;;;;7.00;3.33;;;8.50;99.90;;;;;;5035258;28;20417;-82
2022/09/28 07:20:32;;;;;;;7.07;3.23;;;8.50;99.90;;;;;;5034795;28;20017;-81
2022/09/28 07:23:00;;;;;;;6.50;2.87;;;8.60;99.90;;;;;;5034783;28;20036;-82
2022/09/28 07:25:29;;;;;;;6.90;3.07;;;8.70;99.90;;;;;;5035159;28;20033;-82
2022/09/28 07:27:56;;;;;;;5.23;2.40;;;8.70;99.90;;;;;;5034849;28;20485;-81
2022/09/28 07:30:23;;;;;;;4.63;2.47;;;8.70;99.90;;;;;;5035173;28;20032;-81
2022/09/28 07:32:48;;;;;;;5.90;2.33;;;8.80;99.90;;;;;;5019047;28;20108;-84
2022/09/28 07:35:14;;;;;;;4.43;2.63;;;8.80;99.90;;;;;;5018711;28;20116;-85
2022/09/28 07:37:40;;;;;;;4.57;2.73;;;8.80;99.90;;;;;;5035499;28;20149;-87
2022/09/28 07:42:52;;;;;;;5.03;2.70;;;8.90;99.90;;;;;;5025411;28;20032;-84
2022/09/28 07:45:19;;;;;;;4.17;2.50;;;9.00;99.90;;;;;;5035959;28;20021;-84
2022/09/28 07:47:46;;;;;;;6.30;2.60;;;9.00;99.90;;;;;;5021924;28;20033;-84
2022/09/28 07:50:12;;;;;;;4.77;2.23;;;9.00;99.90;;;;;;5039804;28;20043;-83
2022/09/28 07:52:38;;;;;;;5.70;1.90;;;9.20;99.90;;;;;;5022757;28;20104;-83
2022/09/28 07:55:04;;;;;;;4.20;1.70;;;9.20;99.90;;;;;;5005750;28;20087;-84
2022/09/28 07:57:34;;;;;;;6.73;1.80;;;9.20;99.90;;;;;;5038783;28;20021;-85
2022/09/28 08:00:01;;;;;;;3.07;1.40;;;9.30;99.90;;;;;;5038386;28;20028;-84
2022/09/28 08:02:27;;;;;;;4.07;1.30;;;9.40;99.90;;;;;;5038333;28;20025;-84
2022/09/28 08:04:52;;;;;;;4.87;1.30;;;9.50;99.90;;;;;;5038505;28;20036;-85
2022/09/28 08:07:18;;;;;;;7.30;1.37;;;9.60;99.90;;;;;;5038645;28;20492;-85
2022/09/28 08:09:45;;;;;;;3.17;1.20;;;9.60;99.90;;;;;;5022613;28;20070;-85
2022/09/28 08:12:11;;;;;;;4.00;1.20;;;9.60;99.90;;;;;;5038208;28;20021;-83
2022/09/28 08:14:37;;;;;;;4.30;1.03;;;9.70;99.90;;;;;;5038270;28;20091;-84
2022/09/28 08:17:05;;;;;;;3.03;1.50;;;9.80;99.90;;;;;;5038574;28;20022;-84
2022/09/28 08:22:16;;;;;;;4.90;1.60;;;10.00;99.90;;;;;;5056407;28;20512;-85
2022/09/28 08:24:42;;;;;;;4.27;1.50;;;10.00;99.90;;;;;;5005568;28;20542;-87
2022/09/28 08:27:09;;;;;;;3.53;1.10;;;10.00;99.90;;;;;;5021564;28;20128;-85
2022/09/28 08:29:35;;;;;;;3.50;1.27;;;10.10;99.90;;;;;;5005673;28;20033;-85
2022/09/28 08:32:02;;;;;;;4.75;1.38;;;10.20;99.90;;;;;;5038994;28;20032;-88
2022/09/28 08:34:27;;;;;;;7.78;1.23;;;10.30;99.90;;;;;;5038185;28;20055;-85
2022/09/28 08:36:56;;;;;;;5.37;1.17;;;10.40;99.90;;;;;;5021400;28;20033;-84
2022/09/28 08:39:22;;;;;;;2.70;1.17;;;10.50;99.90;;;;;;5037378;28;20025;-86
2022/09/28 08:42:09;;;;;;;2.22;0.90;;;10.60;99.90;;;;;;5037562;28;20027;-82
2022/09/28 08:44:49;;;;;;;4.57;1.13;;;10.60;99.90;;;;;;5037422;28;20029;-84
2022/09/28 08:50:09;;;;;;;2.10;0.90;;;10.80;99.90;;;;;;5055262;28;20059;-84
2022/09/28 08:52:39;;;;;;;3.45;1.13;;;10.90;99.90;;;;;;5037196;28;20029;-83
2022/09/28 08:55:05;;;;;;;3.80;1.30;;;11.00;99.90;;;;;;5037205;28;20122;-82
2022/09/28 08:57:43;;;;;;;3.72;1.30;;;11.00;99.90;;;;;;5036835;28;20064;-82
2022/09/28 09:00:30;;;;;;;4.65;1.00;;;11.10;99.90;;;;;;5036394;28;20024;-83
2022/09/28 09:02:55;;;;;;;5.63;0.90;;;11.20;99.90;;;;;;5037145;28;20025;-86
2022/09/28 09:05:38;;;;;;;2.92;0.93;;;11.30;99.90;;;;;;5054740;28;20032;-83
2022/09/28 09:08:22;;;;;;;2.40;0.68;;;11.30;99.90;;;;;;5036787;28;20041;-81
2022/09/28 09:10:52;;;;;;;6.22;0.80;;;11.40;99.90;;;;;;5037299;28;20040;-83
2022/09/28 09:13:51;;;;;;;5.07;0.88;;;11.50;99.90;;;;;;5037065;28;20021;-82
2022/09/28 09:16:54;;;;;;;1.50;0.50;;;11.60;99.90;;;;;;5054891;28;20025;-86
2022/09/28 09:19:34;;;;;;;5.18;0.70;;;11.60;99.90;;;;;;4986908;28;20036;-82
2022/09/28 09:22:28;;;;;;;2.97;0.70;;;11.70;99.90;;;;;;5033357;28;20029;-81
2022/09/28 09:25:13;;;;;;;3.50;0.47;;;11.80;99.90;;;;;;5033248;28;20033;-84
2022/09/28 09:27:58;;;;;;;3.15;0.68;;;11.90;99.90;;;;;;5033483;28;20030;-82
2022/09/28 09:30:25;;;;;;;1.52;0.40;;;11.90;99.90;;;;;;5033182;28;20037;-83
2022/09/28 09:33:30;;;;;;;4.05;0.50;;;11.90;99.90;;;;;;5016687;28;20125;-83
2022/09/28 09:36:24;;;;;;;1.85;0.52;;;12.00;99.90;;;;;;5016755;28;20029;-81
2022/09/28 09:39:02;;;;;;;1.33;0.40;;;12.10;99.90;;;;;;5034451;28;20576;-84
2022/09/28 09:41:31;;;;;;;2.75;0.40;;;12.20;99.90;;;;;;5039257;28;20017;-83
2022/09/28 09:44:35;;;;;;;3.80;0.28;;;12.30;99.90;;;;;;5054987;28;20477;-87
2022/09/28 09:47:10;;;;;;;1.60;0.20;;;12.50;99.90;;;;;;5030197;28;20021;-83
2022/09/28 09:49:44;;;;;;;1.73;0.22;;;12.80;99.90;;;;;;5051217;28;20029;-83
2022/09/28 09:52:42;;;;;;;0.50;0.20;;;13.00;99.90;;;;;;5038495;28;20024;-83
2022/09/28 09:55:23;;;;;;;2.42;0.22;;;13.40;99.90;;;;;;5020154;28;20053;-84
2022/09/28 09:58:13;;;;;;;1.42;0.20;;;13.80;99.40;;;;;;5016435;28;20040;-83
2022/09/28 10:00:47;;;;;;;1.00;0.20;;;14.20;99.40;;;;;;5029108;28;20104;-82
2022/09/28 10:03:18;;;;;;;1.50;0.30;;;14.60;98.20;;;;;;5034911;28;20131;-82
2022/09/28 10:05:49;;;;;;;0.90;0.20;;;14.60;97.00;;;;;;5051960;28;20013;-82
2022/09/28 10:08:18;;;;;;;1.02;0.20;;;14.70;96.50;;;;;;5037144;28;20139;-84
2022/09/28 10:10:51;;;;;;;1.10;0.20;;;14.60;95.50;;;;;;5047668;28;20040;-85
2022/09/28 10:13:23;;;;;;;1.23;0.20;;;14.60;93.80;;;;;;5020307;28;20363;-85
2022/09/28 10:15:50;;;;;;;0.15;0.08;;;14.60;93.40;;;;;;5023161;28;20036;-81
2022/09/28 10:18:19;;;;;;;0.75;0.17;;;14.50;93.30;;;;;;5032466;28;20029;-82
2022/09/28 10:20:45;;;;;;;0.40;0.10;;;14.50;92.90;;;;;;5031426;28;20413;-83
2022/09/28 10:23:32;;;;;;;1.40;0.20;;;15.10;94.40;;;;;;4983311;28;20033;-82
2022/09/28 10:26:07;;;;;;;2.83;0.20;;;15.90;94.10;;;;;;5015636;28;20033;-80
2022/09/28 10:28:54;;;;;;;0.75;0.20;;;16.70;93.50;;;;;;5015998;28;20025;-88
2022/09/28 10:31:39;;;;;;;0.80;0.17;;;17.60;92.00;;;;;;5017087;28;20424;-82
2022/09/28 10:34:07;;;;;;;1.08;0.20;;;18.00;88.00;;;;;;5019496;28;20025;-81
2022/09/28 10:36:44;;;;;;;0.38;0.20;;;17.90;86.40;;;;;;5033785;28;20025;-82
2022/09/28 10:39:35;;;;;;;0.90;0.17;;;17.90;86.50;;;;;;5033949;28;20104;-82
2022/09/28 10:42:06;;;;;;;0.90;0.03;;;18.60;83.50;;;;;;5050174;28;20031;-83
2022/09/28 10:44:37;;;;;;;1.75;0.17;;;18.80;82.00;;;;;;5032437;28;20014;-82
2022/09/28 10:47:08;;;;;;;1.17;0.10;;;18.80;78.70;;;;;;5031041;28;20035;-82
2022/09/28 10:49:47;;;;;;;0.32;0.10;;;18.60;75.90;;;;;;5046222;28;20033;-81
2022/09/28 10:52:36;;;;;;;0.20;0.10;;;18.80;76.90;;;;;;5033549;28;20104;-82
2022/09/28 10:55:20;;;;;;;0.30;0.10;;;19.30;74.60;;;;;;5012249;28;20038;-81
2022/09/28 10:57:46;;;;;;;;;;;19.20;72.40;;;;;;5029530;28;20056;-81
2022/09/28 11:00:31;;;;;;;0.43;0.10;;;19.00;71.90;;;;;;5012795;28;19920;-82
2022/09/28 11:02:58;;;;;;;1.83;0.28;;;18.70;70.90;;;;;;5032599;28;20036;-82
2022/09/28 11:05:28;;;;;;;1.65;0.20;;;18.30;69.50;;;;;;5032101;28;20114;-83
2022/09/28 11:07:56;;;;;;;1.08;0.17;;;18.20;71.10;;;;;;5031896;28;20037;-81
2022/09/28 11:10:25;;;;;;;0.60;0.15;;;18.90;73.10;;;;;;5031644;28;20037;-83
2022/09/28 11:12:52;;;;;;;0.47;0.08;;;19.60;72.60;;;;;;5016860;28;20100;-83
2022/09/28 11:15:20;;;;;;;0.20;0.10;;;20.10;71.60;;;;;;5028628;28;20386;-82
2022/09/28 11:17:45;;;;;;;2.05;0.13;;;20.20;67.90;;;;;;5030455;28;20025;-81
2022/09/28 11:20:23;;;;;;;0.63;0.10;;;20.10;66.70;;;;;;5028880;28;20543;-83
2022/09/28 11:22:52;;;;;;;1.15;0.10;;;19.90;65.50;;;;;;5032505;28;20037;-85
2022/09/28 11:25:17;;;;;;;0.43;0.15;;;19.50;63.60;;;;;;5035667;28;20025;-86
2022/09/28 11:27:52;;;;;;;0.32;0.10;;;19.20;63.60;;;;;;5035749;28;20040;-83
2022/09/28 11:30:48;;;;;;;0.75;0.20;;;18.90;64.40;;;;;;5036878;28;20025;-83
2022/09/28 11:33:37;;;;;;;0.88;0.10;;;18.60;65.90;;;;;;5036825;28;20018;-82
2022/09/28 11:36:10;;;;;;;0.10;0.10;;;19.20;67.80;;;;;;5035420;28;20032;-81
2022/09/28 11:38:42;;;;;;;0.05;0.00;;;20.10;68.30;;;;;;5035163;28;20060;-82
2022/09/28 11:41:16;;;;;;;0.20;0.00;;;21.20;67.80;;;;;;5035346;28;20030;-81
2022/09/28 11:44:06;;;;;;;0.40;0.00;;;22.20;65.00;;;;;;5035187;28;20064;-82
2022/09/28 11:47:04;;;;;;;1.05;0.20;;;23.00;60.90;;;;;;5036548;28;20034;-83
2022/09/28 11:49:39;;;;;;;0.10;0.10;;;23.50;60.50;;;;;;5013345;28;20092;-83
2022/09/28 11:52:19;;;;;;;2.45;0.10;;;24.10;58.40;;;;;;5036631;28;20040;-84
2022/09/28 11:54:54;;;;;;;0.47;0.00;;;24.80;57.40;;;;;;5035330;28;20040;-83
2022/09/28 11:57:26;;;;;;;0.90;0.13;;;25.10;55.80;;;;;;5035255;28;20033;-82
2022/09/28 12:00:09;;;;;;;0.15;0.10;;;25.50;54.80;;;;;;5035118;28;20021;-83
2022/09/28 12:02:44;;;;;;;1.50;0.10;;;25.70;53.00;;;;;;5035169;28;20040;-80
2022/09/28 12:05:21;;;;;;;0.45;0.10;;;25.80;51.70;;;;;;5035080;28;20025;-83
2022/09/28 12:07:51;;;;;;;1.50;0.10;;;26.10;51.00;;;;;;5035034;28;20030;-86
2022/09/28 12:10:20;;;;;;;0.38;0.10;;;26.40;49.90;;;;;;5034829;28;20025;-84
2022/09/28 12:13:09;;;;;;;1.08;0.10;;;26.70;49.60;;;;;;5034535;28;20033;-80
2022/09/28 12:15:58;;;;;;;0.10;0.00;;;26.90;47.80;;;;;;5034740;28;20030;-85
2022/09/28 12:18:45;;;;;;;0.50;0.10;;;26.80;47.10;;;;;;5034215;28;20045;-82
2022/09/28 12:21:23;;;;;;;0.65;0.10;;;26.20;47.00;;;;;;5034617;28;20117;-83
2022/09/28 12:23:52;;;;;;;1.23;0.10;;;25.60;46.40;;;;;;5026583;28;20034;-83
2022/09/28 12:26:48;;;;;;;0.00;0.00;;;24.90;47.50;;;;;;5014823;28;20072;-83
2022/09/28 12:29:23;;;;;;;0.68;0.10;;;24.60;48.10;;;;;;5015109;28;20026;-83
2022/09/28 12:32:21;;;;;;;0.60;0.10;;;24.10;48.50;;;;;;5046259;28;20099;-84
2022/09/28 12:34:46;;;;;;;1.67;0.20;;;24.20;49.10;;;;;;5033102;28;20103;-84
2022/09/28 12:37:33;;;;;;;0.25;0.10;;;24.70;49.40;;;;;;5034971;28;20505;-83
2022/09/28 12:40:30;;;;;;;0.20;0.10;;;25.30;49.20;;;;;;5035925;28;20474;-82
2022/09/28 12:43:27;;;;;;;0.30;0.10;;;26.00;48.30;;;;;;5034294;28;20021;-84
2022/09/28 12:46:21;;;;;;;0.30;0.00;;;26.60;47.20;;;;;;5034274;28;20066;-85
2022/09/28 12:48:56;;;;;;;0.60;0.10;;;27.10;46.50;;;;;;5034673;28;20030;-85
2022/09/28 12:51:28;;;;;;;0.45;0.00;;;27.30;45.40;;;;;;5034368;28;20427;-84
2022/09/28 12:53:53;;;;;;;0.20;0.05;;;27.30;45.20;;;;;;5033958;28;20086;-83
2022/09/28 12:56:40;;;;;;;0.45;0.10;;;27.40;45.40;;;;;;5050263;28;20045;-83
2022/09/28 12:59:18;;;;;;;0.63;0.10;;;27.90;44.80;;;;;;5050399;28;20474;-83
2022/09/28 13:02:20;;;;;;;0.93;0.10;;;28.30;43.80;;;;;;5050648;28;20393;-84
2022/09/28 13:05:08;;;;;;;0.00;0.00;;;28.70;42.70;;;;;;5024843;28;20030;-84
2022/09/28 13:07:59;;;;;;;1.35;0.10;;;28.80;42.70;;;;;;5015404;28;20026;-84
2022/09/28 13:10:32;;;;;;;0.43;0.10;;;28.40;41.80;;;;;;5018459;28;20018;-82
2022/09/28 13:13:23;;;;;;;0.13;0.05;;;27.80;41.50;;;;;;5037443;28;20037;-83
2022/09/28 13:16:23;;;;;;;0.08;0.00;;;27.10;41.90;;;;;;5033479;28;20026;-83
2022/09/28 13:19:14;;;;;;;0.15;0.03;;;26.10;42.40;;;;;;5033107;28;20044;-83
2022/09/28 13:21:45;;;;;;;0.10;0.00;;;25.30;43.10;;;;;;5034754;28;20013;-82
2022/09/28 13:24:17;;;;;;;0.30;0.10;;;24.50;44.00;;;;;;5032200;28;20036;-82
2022/09/28 13:26:45;;;;;;;0.10;0.00;;;23.90;44.70;;;;;;5046494;28;20072;-82
2022/09/28 13:29:18;;;;;;;1.38;0.15;;;23.40;46.10;;;;;;5016660;28;20124;-84